Aviation Digital Data Service (ADDS)

Output produced by METARs form (1026 UTC 02 October 2014)
found at http://aviationweather.gov/adds/metars/
 
KGNV 020537Z 0206/0306 00000KT P6SM SCT030 SCT050 
     FM020800 00000KT 4SM BR BKN030 BKN060 
     FM021400 05005KT P6SM SCT020 BKN050 
     FM021900 06007KT P6SM VCSH SCT030 BKN060 
     FM030000 07004KT P6SM SCT030 BKN050